Terminal Aerodrome Forecast
Issued by NWS Wilmington, NC

Home | Current Version | Previous Version | Text Only | Print | Product List | Glossary On
Versions: 1 2 3 4 5 6 7 8 9 10 11 12 13 14
000
FTUS42 KILM 262300
TAFFLO
TAF
KFLO 262320Z 2700/2724 VRB04KT P6SM FEW250
      TEMPO 2708/2710 5SM BR=

USA.gov is the U.S. government's official web portal to all federal, state and local government web resources and services.